Kittrell, North Carolina
Current Conditions -  °F | °C
As of 3:35 AM on Thursday 18 Dec 2014 (Local Time) from KHNZ Reporting Station
Clear Clear  
Wind Chill: 36°   Ceiling: Unl
Heat Index: 39°   Visibility: 10mi
Dew Point: 24°   Wind: 5mph
Humidity: 55%   Direction: 300°WNW
Pressure: 30.11"   Gusts: NA
Location:  36.22°N, 78.44°W
Report Text: KHNZ 180835Z AUTO 30004KT 10SM CLR 04/M04 A3011 RMK AO2 T00391043
Loading
Personal Weather Stations






























Interactive Weather Map New forecast layout! Learn more

10-Day Weather Forecast

Advertisements
Track Severe Weather on mobile